sensor_id;sensor_type;location;lat;lon;timestamp;temperature;humidity
81136;DHT22;70622;50.886;3.890;2024-01-15T00:00:29;2.40;99.90
81136;DHT22;70622;50.886;3.890;2024-01-15T00:02:54;2.40;99.90
81136;DHT22;70622;50.886;3.890;2024-01-15T00:05:20;2.40;99.90
81136;DHT22;70622;50.886;3.890;2024-01-15T00:07:45;2.40;99.90
81136;DHT22;70622;50.886;3.890;2024-01-15T00:10:11;2.50;99.90
81136;DHT22;70622;50.886;3.890;2024-01-15T00:12:36;2.50;99.90
81136;DHT22;70622;50.886;3.890;2024-01-15T00:15:02;2.50;99.90
81136;DHT22;70622;50.886;3.890;2024-01-15T00:17:27;2.50;99.90
81136;DHT22;70622;50.886;3.890;2024-01-15T00:19:53;2.60;99.90
81136;DHT22;70622;50.886;3.890;2024-01-15T00:22:18;2.60;99.90
81136;DHT22;70622;50.886;3.890;2024-01-15T00:24:44;2.60;99.90
81136;DHT22;70622;50.886;3.890;2024-01-15T00:27:10;2.70;99.90
81136;DHT22;70622;50.886;3.890;2024-01-15T00:29:35;2.80;99.90
81136;DHT22;70622;50.886;3.890;2024-01-15T00:32:01;2.80;99.90
81136;DHT22;70622;50.886;3.890;2024-01-15T00:34:26;2.90;99.90
81136;DHT22;70622;50.886;3.890;2024-01-15T00:36:52;2.90;99.90
81136;DHT22;70622;50.886;3.890;2024-01-15T00:39:18;3.00;99.90
81136;DHT22;70622;50.886;3.890;2024-01-15T00:41:43;2.90;99.90
81136;DHT22;70622;50.886;3.890;2024-01-15T00:44:09;2.80;99.90
81136;DHT22;70622;50.886;3.890;2024-01-15T00:46:41;2.80;99.90
81136;DHT22;70622;50.886;3.890;2024-01-15T00:49:07;2.70;99.90
81136;DHT22;70622;50.886;3.890;2024-01-15T00:51:32;2.70;99.90
81136;DHT22;70622;50.886;3.890;2024-01-15T00:53:58;2.70;99.90
81136;DHT22;70622;50.886;3.890;2024-01-15T00:56:23;2.70;99.90
81136;DHT22;70622;50.886;3.890;2024-01-15T00:58:49;2.70;99.90
81136;DHT22;70622;50.886;3.890;2024-01-15T01:01:14;2.70;99.90
81136;DHT22;70622;50.886;3.890;2024-01-15T01:03:40;2.70;99.90
81136;DHT22;70622;50.886;3.890;2024-01-15T01:06:05;2.70;99.90
81136;DHT22;70622;50.886;3.890;2024-01-15T01:08:31;2.80;99.90
81136;DHT22;70622;50.886;3.890;2024-01-15T01:10:56;2.80;99.90
81136;DHT22;70622;50.886;3.890;2024-01-15T01:13:22;3.00;99.90
81136;DHT22;70622;50.886;3.890;2024-01-15T01:15:48;3.00;99.90
81136;DHT22;70622;50.886;3.890;2024-01-15T01:18:13;3.10;99.90
81136;DHT22;70622;50.886;3.890;2024-01-15T01:20:39;3.10;99.90
81136;DHT22;70622;50.886;3.890;2024-01-15T01:23:04;3.10;99.90
81136;DHT22;70622;50.886;3.890;2024-01-15T01:25:30;3.30;99.90
81136;DHT22;70622;50.886;3.890;2024-01-15T01:27:55;3.20;99.90
81136;DHT22;70622;50.886;3.890;2024-01-15T01:30:21;3.30;99.90
81136;DHT22;70622;50.886;3.890;2024-01-15T01:32:46;3.30;99.90
81136;DHT22;70622;50.886;3.890;2024-01-15T01:35:12;3.30;99.90
81136;DHT22;70622;50.886;3.890;2024-01-15T01:37:38;3.20;99.90
81136;DHT22;70622;50.886;3.890;2024-01-15T01:40:03;3.20;99.90
81136;DHT22;70622;50.886;3.890;2024-01-15T01:42:29;3.10;99.90
81136;DHT22;70622;50.886;3.890;2024-01-15T01:44:55;3.00;99.90
81136;DHT22;70622;50.886;3.890;2024-01-15T01:47:20;2.90;99.90
81136;DHT22;70622;50.886;3.890;2024-01-15T01:49:46;2.90;99.90
81136;DHT22;70622;50.886;3.890;2024-01-15T01:52:12;2.90;99.90
81136;DHT22;70622;50.886;3.890;2024-01-15T01:54:38;2.90;99.90
81136;DHT22;70622;50.886;3.890;2024-01-15T01:57:05;2.90;99.90
81136;DHT22;70622;50.886;3.890;2024-01-15T01:59:31;2.90;99.90
81136;DHT22;70622;50.886;3.890;2024-01-15T02:01:58;2.80;99.90
81136;DHT22;70622;50.886;3.890;2024-01-15T02:04:24;2.90;99.90
81136;DHT22;70622;50.886;3.890;2024-01-15T02:06:50;3.00;99.90
81136;DHT22;70622;50.886;3.890;2024-01-15T02:09:16;3.00;99.90
81136;DHT22;70622;50.886;3.890;2024-01-15T02:11:42;3.00;99.90
81136;DHT22;70622;50.886;3.890;2024-01-15T02:14:08;3.00;99.90
81136;DHT22;70622;50.886;3.890;2024-01-15T02:16:34;3.00;99.90
81136;DHT22;70622;50.886;3.890;2024-01-15T02:18:59;3.00;99.90
81136;DHT22;70622;50.886;3.890;2024-01-15T02:21:25;2.90;99.90
81136;DHT22;70622;50.886;3.890;2024-01-15T02:23:54;3.00;99.90
81136;DHT22;70622;50.886;3.890;2024-01-15T02:26:19;3.00;99.90
81136;DHT22;70622;50.886;3.890;2024-01-15T02:28:45;3.00;99.90
81136;DHT22;70622;50.886;3.890;2024-01-15T02:31:10;3.10;99.90
81136;DHT22;70622;50.886;3.890;2024-01-15T02:33:36;3.10;99.90
81136;DHT22;70622;50.886;3.890;2024-01-15T02:36:01;3.10;99.90
81136;DHT22;70622;50.886;3.890;2024-01-15T02:38:27;3.10;99.90
81136;DHT22;70622;50.886;3.890;2024-01-15T02:40:53;3.10;99.90
81136;DHT22;70622;50.886;3.890;2024-01-15T02:43:18;3.10;99.90
81136;DHT22;70622;50.886;3.890;2024-01-15T02:45:44;3.10;99.90
81136;DHT22;70622;50.886;3.890;2024-01-15T02:48:10;3.10;99.90
81136;DHT22;70622;50.886;3.890;2024-01-15T02:50:35;3.00;99.90
81136;DHT22;70622;50.886;3.890;2024-01-15T02:53:01;3.00;99.90
81136;DHT22;70622;50.886;3.890;2024-01-15T02:55:26;3.10;99.90
81136;DHT22;70622;50.886;3.890;2024-01-15T02:57:54;3.20;99.90
81136;DHT22;70622;50.886;3.890;2024-01-15T03:00:20;3.30;99.90
81136;DHT22;70622;50.886;3.890;2024-01-15T03:02:46;3.30;99.90
81136;DHT22;70622;50.886;3.890;2024-01-15T03:05:11;3.30;99.90
81136;DHT22;70622;50.886;3.890;2024-01-15T03:07:37;3.20;99.90
81136;DHT22;70622;50.886;3.890;2024-01-15T03:10:04;3.20;99.90
81136;DHT22;70622;50.886;3.890;2024-01-15T03:12:30;3.30;99.90
81136;DHT22;70622;50.886;3.890;2024-01-15T03:14:55;3.20;99.90
81136;DHT22;70622;50.886;3.890;2024-01-15T03:17:21;3.20;99.90
81136;DHT22;70622;50.886;3.890;2024-01-15T03:19:46;3.30;99.90
81136;DHT22;70622;50.886;3.890;2024-01-15T03:22:12;3.20;99.90
81136;DHT22;70622;50.886;3.890;2024-01-15T03:24:37;3.20;99.90
81136;DHT22;70622;50.886;3.890;2024-01-15T03:27:03;3.20;99.90
81136;DHT22;70622;50.886;3.890;2024-01-15T03:29:29;3.20;99.90
81136;DHT22;70622;50.886;3.890;2024-01-15T03:31:54;3.20;99.90
81136;DHT22;70622;50.886;3.890;2024-01-15T03:34:20;3.10;99.90
81136;DHT22;70622;50.886;3.890;2024-01-15T03:36:45;3.10;99.90
81136;DHT22;70622;50.886;3.890;2024-01-15T03:39:11;3.10;99.90
81136;DHT22;70622;50.886;3.890;2024-01-15T03:41:36;3.10;99.90
81136;DHT22;70622;50.886;3.890;2024-01-15T03:44:02;3.10;99.90
81136;DHT22;70622;50.886;3.890;2024-01-15T03:46:28;3.20;99.90
81136;DHT22;70622;50.886;3.890;2024-01-15T03:48:53;3.20;99.90
81136;DHT22;70622;50.886;3.890;2024-01-15T03:51:19;3.10;99.90
81136;DHT22;70622;50.886;3.890;2024-01-15T03:53:44;3.00;99.90
81136;DHT22;70622;50.886;3.890;2024-01-15T03:56:10;3.10;99.90
81136;DHT22;70622;50.886;3.890;2024-01-15T03:58:35;3.00;99.90
81136;DHT22;70622;50.886;3.890;2024-01-15T04:01:01;2.90;99.90
81136;DHT22;70622;50.886;3.890;2024-01-15T04:03:26;2.90;99.90
81136;DHT22;70622;50.886;3.890;2024-01-15T04:05:52;2.80;99.90
81136;DHT22;70622;50.886;3.890;2024-01-15T04:08:17;2.80;99.90
81136;DHT22;70622;50.886;3.890;2024-01-15T04:10:43;2.70;99.90
81136;DHT22;70622;50.886;3.890;2024-01-15T04:13:09;2.70;99.90
81136;DHT22;70622;50.886;3.890;2024-01-15T04:15:34;2.60;99.90
81136;DHT22;70622;50.886;3.890;2024-01-15T04:18:00;2.60;99.90
81136;DHT22;70622;50.886;3.890;2024-01-15T04:20:26;2.60;99.90
81136;DHT22;70622;50.886;3.890;2024-01-15T04:22:52;2.60;99.90
81136;DHT22;70622;50.886;3.890;2024-01-15T04:25:17;2.50;99.90
81136;DHT22;70622;50.886;3.890;2024-01-15T04:27:43;2.40;99.90
81136;DHT22;70622;50.886;3.890;2024-01-15T04:30:08;2.30;99.90
81136;DHT22;70622;50.886;3.890;2024-01-15T04:32:34;2.30;99.90
81136;DHT22;70622;50.886;3.890;2024-01-15T04:34:59;2.30;99.90
81136;DHT22;70622;50.886;3.890;2024-01-15T04:37:25;2.30;99.90
81136;DHT22;70622;50.886;3.890;2024-01-15T04:39:50;2.30;99.90
81136;DHT22;70622;50.886;3.890;2024-01-15T04:42:18;2.40;99.90
81136;DHT22;70622;50.886;3.890;2024-01-15T04:44:43;2.40;99.90
81136;DHT22;70622;50.886;3.890;2024-01-15T04:47:09;2.40;99.90
81136;DHT22;70622;50.886;3.890;2024-01-15T04:49:34;2.40;99.90
81136;DHT22;70622;50.886;3.890;2024-01-15T04:52:00;2.40;99.90
81136;DHT22;70622;50.886;3.890;2024-01-15T04:54:25;2.40;99.90
81136;DHT22;70622;50.886;3.890;2024-01-15T04:56:51;2.40;99.90
81136;DHT22;70622;50.886;3.890;2024-01-15T04:59:16;2.40;99.90
81136;DHT22;70622;50.886;3.890;2024-01-15T05:01:42;2.40;99.90
81136;DHT22;70622;50.886;3.890;2024-01-15T05:04:07;2.40;99.90
81136;DHT22;70622;50.886;3.890;2024-01-15T05:06:33;2.40;99.90
81136;DHT22;70622;50.886;3.890;2024-01-15T05:08:58;2.40;99.90
81136;DHT22;70622;50.886;3.890;2024-01-15T05:11:24;2.50;99.90
81136;DHT22;70622;50.886;3.890;2024-01-15T05:13:50;2.60;99.90
81136;DHT22;70622;50.886;3.890;2024-01-15T05:16:15;2.70;99.90
81136;DHT22;70622;50.886;3.890;2024-01-15T05:18:41;2.70;99.90
81136;DHT22;70622;50.886;3.890;2024-01-15T05:21:06;2.80;99.90
81136;DHT22;70622;50.886;3.890;2024-01-15T05:23:32;2.80;99.90
81136;DHT22;70622;50.886;3.890;2024-01-15T05:33:36;2.70;99.90
81136;DHT22;70622;50.886;3.890;2024-01-15T05:36:20;2.70;99.90
81136;DHT22;70622;50.886;3.890;2024-01-15T05:38:47;2.60;99.90
81136;DHT22;70622;50.886;3.890;2024-01-15T05:41:13;2.40;99.90
81136;DHT22;70622;50.886;3.890;2024-01-15T05:44:11;2.50;99.90
81136;DHT22;70622;50.886;3.890;2024-01-15T05:46:39;2.50;99.90
81136;DHT22;70622;50.886;3.890;2024-01-15T05:49:05;2.40;99.90
81136;DHT22;70622;50.886;3.890;2024-01-15T05:51:51;2.40;99.90
81136;DHT22;70622;50.886;3.890;2024-01-15T05:54:46;2.40;99.90
81136;DHT22;70622;50.886;3.890;2024-01-15T05:57:49;2.40;99.90
81136;DHT22;70622;50.886;3.890;2024-01-15T06:00:36;2.40;99.90
81136;DHT22;70622;50.886;3.890;2024-01-15T06:03:42;2.40;99.90
81136;DHT22;70622;50.886;3.890;2024-01-15T06:06:10;2.30;99.90
81136;DHT22;70622;50.886;3.890;2024-01-15T06:08:37;2.20;99.90
81136;DHT22;70622;50.886;3.890;2024-01-15T06:11:32;2.10;99.90
81136;DHT22;70622;50.886;3.890;2024-01-15T06:13:58;2.10;99.90
81136;DHT22;70622;50.886;3.890;2024-01-15T06:31:21;2.00;99.90
81136;DHT22;70622;50.886;3.890;2024-01-15T07:27:33;1.60;99.90
81136;DHT22;70622;50.886;3.890;2024-01-15T07:30:15;1.60;99.90
81136;DHT22;70622;50.886;3.890;2024-01-15T07:32:46;1.70;99.90
81136;DHT22;70622;50.886;3.890;2024-01-15T07:35:14;1.70;99.90
81136;DHT22;70622;50.886;3.890;2024-01-15T07:37:39;1.70;99.90
81136;DHT22;70622;50.886;3.890;2024-01-15T07:40:05;1.70;99.90
81136;DHT22;70622;50.886;3.890;2024-01-15T07:42:33;1.70;99.90
81136;DHT22;70622;50.886;3.890;2024-01-15T07:44:59;1.80;99.90
81136;DHT22;70622;50.886;3.890;2024-01-15T07:47:24;1.70;99.90
81136;DHT22;70622;50.886;3.890;2024-01-15T07:49:50;1.70;99.90
81136;DHT22;70622;50.886;3.890;2024-01-15T07:52:15;1.70;99.90
81136;DHT22;70622;50.886;3.890;2024-01-15T07:54:41;1.60;99.90
81136;DHT22;70622;50.886;3.890;2024-01-15T07:57:10;1.60;99.90
81136;DHT22;70622;50.886;3.890;2024-01-15T07:59:35;1.60;99.90
81136;DHT22;70622;50.886;3.890;2024-01-15T08:02:03;1.70;99.90
81136;DHT22;70622;50.886;3.890;2024-01-15T08:04:29;1.70;99.90
81136;DHT22;70622;50.886;3.890;2024-01-15T08:06:55;1.60;99.90
81136;DHT22;70622;50.886;3.890;2024-01-15T08:09:22;1.60;99.90
81136;DHT22;70622;50.886;3.890;2024-01-15T08:11:47;1.60;99.90
81136;DHT22;70622;50.886;3.890;2024-01-15T08:14:14;1.70;99.90
81136;DHT22;70622;50.886;3.890;2024-01-15T08:16:40;1.70;99.90
81136;DHT22;70622;50.886;3.890;2024-01-15T08:19:06;1.70;99.90
81136;DHT22;70622;50.886;3.890;2024-01-15T08:21:31;1.80;99.90
81136;DHT22;70622;50.886;3.890;2024-01-15T08:23:58;1.80;99.90
81136;DHT22;70622;50.886;3.890;2024-01-15T08:26:24;1.80;99.90
81136;DHT22;70622;50.886;3.890;2024-01-15T08:28:49;1.80;99.90
81136;DHT22;70622;50.886;3.890;2024-01-15T08:31:15;1.80;99.90
81136;DHT22;70622;50.886;3.890;2024-01-15T08:33:40;1.80;99.90
81136;DHT22;70622;50.886;3.890;2024-01-15T08:36:06;1.80;99.90
81136;DHT22;70622;50.886;3.890;2024-01-15T08:38:31;1.80;99.90
81136;DHT22;70622;50.886;3.890;2024-01-15T08:40:57;1.80;99.90
81136;DHT22;70622;50.886;3.890;2024-01-15T08:43:26;1.80;99.90
81136;DHT22;70622;50.886;3.890;2024-01-15T08:45:51;1.90;99.90
81136;DHT22;70622;50.886;3.890;2024-01-15T08:48:16;1.90;99.90
81136;DHT22;70622;50.886;3.890;2024-01-15T08:50:42;1.90;99.90
81136;DHT22;70622;50.886;3.890;2024-01-15T08:53:08;1.90;99.90
81136;DHT22;70622;50.886;3.890;2024-01-15T08:55:33;2.00;99.90
81136;DHT22;70622;50.886;3.890;2024-01-15T08:57:59;2.00;99.90
81136;DHT22;70622;50.886;3.890;2024-01-15T09:00:24;2.10;99.90
81136;DHT22;70622;50.886;3.890;2024-01-15T09:02:50;2.10;99.90
81136;DHT22;70622;50.886;3.890;2024-01-15T09:05:15;2.10;99.90
81136;DHT22;70622;50.886;3.890;2024-01-15T09:07:41;2.20;99.90
81136;DHT22;70622;50.886;3.890;2024-01-15T09:10:06;2.20;99.90
81136;DHT22;70622;50.886;3.890;2024-01-15T09:12:32;2.20;99.90
81136;DHT22;70622;50.886;3.890;2024-01-15T09:14:57;2.20;99.90
81136;DHT22;70622;50.886;3.890;2024-01-15T09:17:23;2.30;99.90
81136;DHT22;70622;50.886;3.890;2024-01-15T09:19:49;2.30;99.90
81136;DHT22;70622;50.886;3.890;2024-01-15T09:22:14;2.30;99.90
81136;DHT22;70622;50.886;3.890;2024-01-15T09:24:44;2.30;99.90
81136;DHT22;70622;50.886;3.890;2024-01-15T09:27:09;2.30;99.90
81136;DHT22;70622;50.886;3.890;2024-01-15T09:29:35;2.30;99.90
81136;DHT22;70622;50.886;3.890;2024-01-15T09:32:03;2.30;99.90
81136;DHT22;70622;50.886;3.890;2024-01-15T09:34:29;2.40;99.90
81136;DHT22;70622;50.886;3.890;2024-01-15T09:36:55;2.40;99.90
81136;DHT22;70622;50.886;3.890;2024-01-15T09:39:20;2.50;99.90
81136;DHT22;70622;50.886;3.890;2024-01-15T09:41:47;2.60;99.90
81136;DHT22;70622;50.886;3.890;2024-01-15T09:44:13;2.60;99.90
81136;DHT22;70622;50.886;3.890;2024-01-15T09:46:39;2.60;99.90
81136;DHT22;70622;50.886;3.890;2024-01-15T09:49:06;2.60;99.90
81136;DHT22;70622;50.886;3.890;2024-01-15T09:51:47;2.70;99.90
81136;DHT22;70622;50.886;3.890;2024-01-15T09:54:39;2.70;99.90
81136;DHT22;70622;50.886;3.890;2024-01-15T09:57:11;2.80;99.90
81136;DHT22;70622;50.886;3.890;2024-01-15T09:59:49;2.80;99.90
81136;DHT22;70622;50.886;3.890;2024-01-15T10:02:46;2.80;99.90
81136;DHT22;70622;50.886;3.890;2024-01-15T10:05:45;2.90;99.90
81136;DHT22;70622;50.886;3.890;2024-01-15T10:08:17;3.20;99.90
81136;DHT22;70622;50.886;3.890;2024-01-15T10:10:50;3.20;99.70
81136;DHT22;70622;50.886;3.890;2024-01-15T10:16:04;3.10;99.50
81136;DHT22;70622;50.886;3.890;2024-01-15T10:18:39;3.10;99.90
81136;DHT22;70622;50.886;3.890;2024-01-15T10:21:11;3.10;99.90
81136;DHT22;70622;50.886;3.890;2024-01-15T10:23:36;3.00;99.90
81136;DHT22;70622;50.886;3.890;2024-01-15T10:26:03;3.00;99.90
81136;DHT22;70622;50.886;3.890;2024-01-15T10:28:29;3.20;99.90
81136;DHT22;70622;50.886;3.890;2024-01-15T10:30:58;3.20;99.90
81136;DHT22;70622;50.886;3.890;2024-01-15T10:33:24;3.10;99.90
81136;DHT22;70622;50.886;3.890;2024-01-15T10:35:57;3.20;99.90
81136;DHT22;70622;50.886;3.890;2024-01-15T10:38:25;3.30;99.90
81136;DHT22;70622;50.886;3.890;2024-01-15T10:40:52;3.20;99.90
81136;DHT22;70622;50.886;3.890;2024-01-15T10:43:18;3.30;99.90
81136;DHT22;70622;50.886;3.890;2024-01-15T10:45:44;3.20;99.90
81136;DHT22;70622;50.886;3.890;2024-01-15T10:48:10;3.40;99.90
81136;DHT22;70622;50.886;3.890;2024-01-15T10:50:36;3.40;99.90
81136;DHT22;70622;50.886;3.890;2024-01-15T10:53:02;3.60;99.30
81136;DHT22;70622;50.886;3.890;2024-01-15T10:55:31;3.70;98.80
81136;DHT22;70622;50.886;3.890;2024-01-15T10:58:04;3.60;99.00
81136;DHT22;70622;50.886;3.890;2024-01-15T11:00:35;3.60;99.10
81136;DHT22;70622;50.886;3.890;2024-01-15T11:03:03;3.90;98.60
81136;DHT22;70622;50.886;3.890;2024-01-15T11:08:23;4.10;97.40
81136;DHT22;70622;50.886;3.890;2024-01-15T11:10:52;4.10;97.60
81136;DHT22;70622;50.886;3.890;2024-01-15T11:13:39;4.20;98.10
81136;DHT22;70622;50.886;3.890;2024-01-15T11:16:06;4.30;96.50
81136;DHT22;70622;50.886;3.890;2024-01-15T11:18:35;4.20;97.00
81136;DHT22;70622;50.886;3.890;2024-01-15T11:23:49;3.90;96.80
81136;DHT22;70622;50.886;3.890;2024-01-15T11:29:05;3.60;97.10
81136;DHT22;70622;50.886;3.890;2024-01-15T11:34:16;3.60;98.10
81136;DHT22;70622;50.886;3.890;2024-01-15T11:42:02;3.80;96.10
81136;DHT22;70622;50.886;3.890;2024-01-15T11:44:31;3.80;95.70
81136;DHT22;70622;50.886;3.890;2024-01-15T11:47:09;3.80;95.90
81136;DHT22;70622;50.886;3.890;2024-01-15T11:52:22;4.10;96.10
81136;DHT22;70622;50.886;3.890;2024-01-15T12:00:10;4.50;95.10
81136;DHT22;70622;50.886;3.890;2024-01-15T12:02:37;4.60;95.20
81136;DHT22;70622;50.886;3.890;2024-01-15T12:05:07;4.50;95.10
81136;DHT22;70622;50.886;3.890;2024-01-15T12:07:39;4.40;95.10
81136;DHT22;70622;50.886;3.890;2024-01-15T12:10:25;4.30;94.90
81136;DHT22;70622;50.886;3.890;2024-01-15T12:15:37;4.20;94.90
81136;DHT22;70622;50.886;3.890;2024-01-15T12:18:03;4.40;95.00
81136;DHT22;70622;50.886;3.890;2024-01-15T12:20:30;4.70;95.20
81136;DHT22;70622;50.886;3.890;2024-01-15T12:22:56;4.80;93.90
81136;DHT22;70622;50.886;3.890;2024-01-15T12:25:22;4.70;94.30
81136;DHT22;70622;50.886;3.890;2024-01-15T12:27:48;4.60;94.20
81136;DHT22;70622;50.886;3.890;2024-01-15T12:30:13;4.60;94.30
81136;DHT22;70622;50.886;3.890;2024-01-15T12:32:40;4.60;95.20
81136;DHT22;70622;50.886;3.890;2024-01-15T12:35:07;4.50;94.70
81136;DHT22;70622;50.886;3.890;2024-01-15T12:37:34;4.40;95.00
81136;DHT22;70622;50.886;3.890;2024-01-15T12:40:00;4.30;95.00
81136;DHT22;70622;50.886;3.890;2024-01-15T12:42:26;4.40;95.30
81136;DHT22;70622;50.886;3.890;2024-01-15T12:44:54;4.50;95.30
81136;DHT22;70622;50.886;3.890;2024-01-15T12:47:20;4.50;95.20
81136;DHT22;70622;50.886;3.890;2024-01-15T12:49:46;4.40;95.10
81136;DHT22;70622;50.886;3.890;2024-01-15T12:52:12;4.30;95.90
81136;DHT22;70622;50.886;3.890;2024-01-15T12:54:37;4.30;95.80
81136;DHT22;70622;50.886;3.890;2024-01-15T12:57:03;4.20;95.70
81136;DHT22;70622;50.886;3.890;2024-01-15T12:59:28;4.10;96.00
81136;DHT22;70622;50.886;3.890;2024-01-15T13:01:54;4.10;96.30
81136;DHT22;70622;50.886;3.890;2024-01-15T13:04:21;4.20;96.70
81136;DHT22;70622;50.886;3.890;2024-01-15T13:06:46;4.10;97.10
81136;DHT22;70622;50.886;3.890;2024-01-15T13:09:12;4.10;97.30
81136;DHT22;70622;50.886;3.890;2024-01-15T13:11:37;4.10;97.50
81136;DHT22;70622;50.886;3.890;2024-01-15T13:14:03;4.10;97.30
81136;DHT22;70622;50.886;3.890;2024-01-15T13:16:29;4.20;97.40
81136;DHT22;70622;50.886;3.890;2024-01-15T13:18:54;4.40;97.40
81136;DHT22;70622;50.886;3.890;2024-01-15T13:21:20;4.40;96.70
81136;DHT22;70622;50.886;3.890;2024-01-15T13:23:46;4.50;97.00
81136;DHT22;70622;50.886;3.890;2024-01-15T13:26:11;4.50;96.60
81136;DHT22;70622;50.886;3.890;2024-01-15T13:28:37;4.50;97.00
81136;DHT22;70622;50.886;3.890;2024-01-15T13:31:03;4.50;96.90
81136;DHT22;70622;50.886;3.890;2024-01-15T13:33:30;4.40;97.40
81136;DHT22;70622;50.886;3.890;2024-01-15T13:35:55;4.40;96.70
81136;DHT22;70622;50.886;3.890;2024-01-15T13:38:21;4.50;96.50
81136;DHT22;70622;50.886;3.890;2024-01-15T13:40:46;4.60;96.20
81136;DHT22;70622;50.886;3.890;2024-01-15T13:43:12;4.70;96.40
81136;DHT22;70622;50.886;3.890;2024-01-15T13:45:40;4.60;96.10
81136;DHT22;70622;50.886;3.890;2024-01-15T13:48:06;4.70;96.10
81136;DHT22;70622;50.886;3.890;2024-01-15T13:50:33;4.60;96.20
81136;DHT22;70622;50.886;3.890;2024-01-15T13:53:00;4.60;96.50
81136;DHT22;70622;50.886;3.890;2024-01-15T13:55:25;4.80;96.40
81136;DHT22;70622;50.886;3.890;2024-01-15T13:57:51;4.90;96.20
81136;DHT22;70622;50.886;3.890;2024-01-15T14:00:16;5.00;94.70
81136;DHT22;70622;50.886;3.890;2024-01-15T14:02:45;4.90;94.20
81136;DHT22;70622;50.886;3.890;2024-01-15T14:05:11;4.70;94.70
81136;DHT22;70622;50.886;3.890;2024-01-15T14:07:38;4.60;95.70
81136;DHT22;70622;50.886;3.890;2024-01-15T14:10:04;4.50;95.40
81136;DHT22;70622;50.886;3.890;2024-01-15T14:12:30;4.50;95.60
81136;DHT22;70622;50.886;3.890;2024-01-15T14:14:58;4.70;95.60
81136;DHT22;70622;50.886;3.890;2024-01-15T14:17:24;4.80;95.20
81136;DHT22;70622;50.886;3.890;2024-01-15T14:19:49;4.80;95.20
81136;DHT22;70622;50.886;3.890;2024-01-15T14:22:15;4.80;95.30
81136;DHT22;70622;50.886;3.890;2024-01-15T14:24:40;4.70;95.60
81136;DHT22;70622;50.886;3.890;2024-01-15T14:27:06;4.60;96.20
81136;DHT22;70622;50.886;3.890;2024-01-15T14:29:32;4.50;96.40
81136;DHT22;70622;50.886;3.890;2024-01-15T14:31:58;4.40;96.00
81136;DHT22;70622;50.886;3.890;2024-01-15T14:34:24;4.30;96.30
81136;DHT22;70622;50.886;3.890;2024-01-15T14:36:51;4.30;95.70
81136;DHT22;70622;50.886;3.890;2024-01-15T14:39:19;4.30;95.70
81136;DHT22;70622;50.886;3.890;2024-01-15T14:41:45;4.50;95.90
81136;DHT22;70622;50.886;3.890;2024-01-15T14:44:21;4.40;95.90
81136;DHT22;70622;50.886;3.890;2024-01-15T14:49:22;4.30;96.10
81136;DHT22;70622;50.886;3.890;2024-01-15T14:51:47;4.20;96.60
81136;DHT22;70622;50.886;3.890;2024-01-15T14:54:21;4.20;97.10
81136;DHT22;70622;50.886;3.890;2024-01-15T14:59:31;4.20;97.00
81136;DHT22;70622;50.886;3.890;2024-01-15T15:02:03;4.30;96.90
81136;DHT22;70622;50.886;3.890;2024-01-15T15:04:51;4.50;97.00
81136;DHT22;70622;50.886;3.890;2024-01-15T15:07:51;4.50;96.50
81136;DHT22;70622;50.886;3.890;2024-01-15T15:10:46;4.40;96.30
81136;DHT22;70622;50.886;3.890;2024-01-15T15:13:57;4.50;96.00
81136;DHT22;70622;50.886;3.890;2024-01-15T15:17:05;4.50;96.30
81136;DHT22;70622;50.886;3.890;2024-01-15T15:20:10;4.60;96.20
81136;DHT22;70622;50.886;3.890;2024-01-15T15:25:37;4.70;95.70
81136;DHT22;70622;50.886;3.890;2024-01-15T15:28:26;4.60;96.40
81136;DHT22;70622;50.886;3.890;2024-01-15T15:30:51;4.40;98.10
81136;DHT22;70622;50.886;3.890;2024-01-15T15:33:20;4.00;99.90
81136;DHT22;70622;50.886;3.890;2024-01-15T15:35:49;3.60;99.90
81136;DHT22;70622;50.886;3.890;2024-01-15T15:38:23;3.50;99.90
81136;DHT22;70622;50.886;3.890;2024-01-15T15:40:49;3.60;99.90
81136;DHT22;70622;50.886;3.890;2024-01-15T15:43:24;3.50;99.90
81136;DHT22;70622;50.886;3.890;2024-01-15T15:45:49;3.50;99.90
81136;DHT22;70622;50.886;3.890;2024-01-15T15:48:21;3.40;99.90
81136;DHT22;70622;50.886;3.890;2024-01-15T15:54:09;3.50;99.90
81136;DHT22;70622;50.886;3.890;2024-01-15T16:02:17;3.60;99.90
81136;DHT22;70622;50.886;3.890;2024-01-15T16:04:46;3.60;99.90
81136;DHT22;70622;50.886;3.890;2024-01-15T16:07:11;3.60;99.70
81136;DHT22;70622;50.886;3.890;2024-01-15T16:09:37;3.50;99.50
81136;DHT22;70622;50.886;3.890;2024-01-15T16:12:25;3.40;99.50
81136;DHT22;70622;50.886;3.890;2024-01-15T16:14:51;3.20;99.90
81136;DHT22;70622;50.886;3.890;2024-01-15T16:17:17;3.10;99.90
81136;DHT22;70622;50.886;3.890;2024-01-15T16:19:52;3.10;99.90
81136;DHT22;70622;50.886;3.890;2024-01-15T16:23:03;3.00;99.90
81136;DHT22;70622;50.886;3.890;2024-01-15T16:25:34;2.90;99.90
81136;DHT22;70622;50.886;3.890;2024-01-15T16:28:20;2.90;99.90
81136;DHT22;70622;50.886;3.890;2024-01-15T16:31:06;2.80;99.90
81136;DHT22;70622;50.886;3.890;2024-01-15T16:33:54;2.90;99.90
81136;DHT22;70622;50.886;3.890;2024-01-15T16:36:36;2.80;99.90
81136;DHT22;70622;50.886;3.890;2024-01-15T16:39:14;2.70;99.90
81136;DHT22;70622;50.886;3.890;2024-01-15T16:42:23;2.70;99.90
81136;DHT22;70622;50.886;3.890;2024-01-15T16:44:49;2.70;99.90
81136;DHT22;70622;50.886;3.890;2024-01-15T16:47:14;2.70;99.90
81136;DHT22;70622;50.886;3.890;2024-01-15T16:49:43;2.60;99.90
81136;DHT22;70622;50.886;3.890;2024-01-15T16:52:09;2.60;99.90
81136;DHT22;70622;50.886;3.890;2024-01-15T16:54:34;2.60;99.90
81136;DHT22;70622;50.886;3.890;2024-01-15T16:57:00;2.50;99.90
81136;DHT22;70622;50.886;3.890;2024-01-15T16:59:26;2.50;99.90
81136;DHT22;70622;50.886;3.890;2024-01-15T17:01:51;2.40;99.90
81136;DHT22;70622;50.886;3.890;2024-01-15T17:04:17;2.40;99.90
81136;DHT22;70622;50.886;3.890;2024-01-15T17:06:45;2.50;99.90
81136;DHT22;70622;50.886;3.890;2024-01-15T17:09:11;2.40;99.90
81136;DHT22;70622;50.886;3.890;2024-01-15T17:11:37;2.40;99.90
81136;DHT22;70622;50.886;3.890;2024-01-15T17:14:05;2.30;99.90
81136;DHT22;70622;50.886;3.890;2024-01-15T17:16:31;2.30;99.90
81136;DHT22;70622;50.886;3.890;2024-01-15T17:18:56;2.30;99.90
81136;DHT22;70622;50.886;3.890;2024-01-15T17:21:22;2.40;99.90
81136;DHT22;70622;50.886;3.890;2024-01-15T17:23:47;2.40;99.90
81136;DHT22;70622;50.886;3.890;2024-01-15T17:26:13;2.50;99.90
81136;DHT22;70622;50.886;3.890;2024-01-15T17:28:59;2.60;99.90
81136;DHT22;70622;50.886;3.890;2024-01-15T17:31:30;2.60;99.90
81136;DHT22;70622;50.886;3.890;2024-01-15T17:33:56;2.60;99.90
81136;DHT22;70622;50.886;3.890;2024-01-15T17:36:21;2.70;99.90
81136;DHT22;70622;50.886;3.890;2024-01-15T17:38:47;2.70;99.90
81136;DHT22;70622;50.886;3.890;2024-01-15T17:41:13;2.70;99.90
81136;DHT22;70622;50.886;3.890;2024-01-15T17:43:39;2.70;99.90
81136;DHT22;70622;50.886;3.890;2024-01-15T17:46:05;2.60;99.90
81136;DHT22;70622;50.886;3.890;2024-01-15T17:48:30;2.60;99.90
81136;DHT22;70622;50.886;3.890;2024-01-15T17:51:00;2.60;99.90
81136;DHT22;70622;50.886;3.890;2024-01-15T17:53:26;2.50;99.90
81136;DHT22;70622;50.886;3.890;2024-01-15T17:55:51;2.30;99.90